createdAt,value
2023-02-28T00:01:34.722Z,11.32
2023-02-28T00:04:02.254Z,11.98
2023-02-28T00:06:29.571Z,13.02
2023-02-28T00:08:56.891Z,11.43
2023-02-28T00:11:24.425Z,10.77
2023-02-28T00:13:51.687Z,10.77
2023-02-28T00:16:21.141Z,10.57
2023-02-28T00:18:50.033Z,11.02
2023-02-28T00:21:18.967Z,10.68
2023-02-28T00:23:46.659Z,11.38
2023-02-28T00:26:14.020Z,12.02
2023-02-28T00:28:45.447Z,12.05
2023-02-28T00:31:12.651Z,11.63
2023-02-28T00:33:40.283Z,11.38
2023-02-28T00:36:10.427Z,12.80
2023-02-28T00:38:39.234Z,11.55
2023-02-28T00:41:06.871Z,11.20
2023-02-28T00:43:36.420Z,11.68
2023-02-28T00:46:05.124Z,11.05
2023-02-28T00:48:33.041Z,10.93
2023-02-28T00:51:00.048Z,11.85
2023-02-28T00:53:27.441Z,13.32
2023-02-28T00:55:54.476Z,11.32
2023-02-28T00:58:21.737Z,11.50
2023-02-28T01:00:50.092Z,11.50
2023-02-28T01:03:18.750Z,12.18
2023-02-28T01:05:46.458Z,12.82
2023-02-28T01:08:14.941Z,12.30
2023-02-28T01:10:42.258Z,11.88
2023-02-28T01:13:09.688Z,11.82
2023-02-28T01:15:38.191Z,11.50
2023-02-28T01:18:05.843Z,12.15
2023-02-28T01:20:32.848Z,11.40
2023-02-28T01:23:00.356Z,12.82
2023-02-28T01:25:27.901Z,11.98
2023-02-28T01:27:55.488Z,15.80
2023-02-28T01:30:22.536Z,11.20
2023-02-28T01:32:51.154Z,12.23
2023-02-28T01:35:19.026Z,12.50
2023-02-28T01:37:46.623Z,12.90
2023-02-28T01:40:14.237Z,13.02
2023-02-28T01:42:41.544Z,12.55
2023-02-28T01:45:20.550Z,11.93
2023-02-28T01:47:51.800Z,12.90
2023-02-28T01:50:23.543Z,13.13
2023-02-28T01:52:55.932Z,13.50
2023-02-28T01:55:29.511Z,13.63
2023-02-28T01:58:03.353Z,14.00
2023-02-28T02:00:31.475Z,13.90
2023-02-28T02:03:00.922Z,14.35
2023-02-28T02:05:35.504Z,13.85
2023-02-28T02:08:06.364Z,13.80
2023-02-28T02:10:52.190Z,14.07
2023-02-28T02:13:22.478Z,14.32
2023-02-28T02:16:35.042Z,14.48
2023-02-28T02:19:23.792Z,14.35
2023-02-28T02:22:28.772Z,13.75
2023-02-28T02:25:29.435Z,13.65
2023-02-28T02:28:33.572Z,13.93
2023-02-28T02:31:21.334Z,12.57
2023-02-28T02:34:31.681Z,14.60
2023-02-28T02:37:32.345Z,13.18
2023-02-28T02:40:03.876Z,8.80
2023-02-28T02:42:37.128Z,12.38
2023-02-28T02:45:10.682Z,12.80
2023-02-28T02:47:40.245Z,11.32
2023-02-28T02:50:13.556Z,12.93
2023-02-28T02:52:49.415Z,12.00
2023-02-28T02:55:19.358Z,12.90
2023-02-28T02:57:54.736Z,12.98
2023-02-28T03:00:29.222Z,12.32
2023-02-28T03:02:58.016Z,10.55
2023-02-28T03:05:29.738Z,10.15
2023-02-28T03:07:57.306Z,9.73
2023-02-28T03:10:51.942Z,9.68
2023-02-28T03:13:31.621Z,8.75
2023-02-28T03:16:26.790Z,9.02
2023-02-28T03:19:08.371Z,9.40
2023-02-28T03:21:44.705Z,8.60
2023-02-28T03:24:24.128Z,9.80
2023-02-28T03:27:01.805Z,9.60
2023-02-28T03:29:36.152Z,9.10
2023-02-28T03:32:15.861Z,9.10
2023-02-28T03:34:49.774Z,9.40
2023-02-28T03:37:21.725Z,9.30
2023-02-28T03:40:02.197Z,9.98
2023-02-28T03:42:32.901Z,9.18
2023-02-28T03:45:24.010Z,10.95
2023-02-28T03:47:56.076Z,9.95
2023-02-28T03:50:24.951Z,9.57
2023-02-28T03:53:02.229Z,10.52
2023-02-28T03:55:35.448Z,8.90
2023-02-28T03:58:15.939Z,9.85
2023-02-28T04:00:50.689Z,9.70
2023-02-28T04:03:18.139Z,9.85
2023-02-28T04:05:51.728Z,10.18
2023-02-28T04:08:18.836Z,9.60
2023-02-28T04:10:52.664Z,9.50
2023-02-28T04:13:19.978Z,8.48
2023-02-28T04:15:47.373Z,9.65
2023-02-28T04:18:14.713Z,8.20
2023-02-28T04:20:42.556Z,8.73
2023-02-28T04:23:09.548Z,9.70
2023-02-28T04:25:36.856Z,9.30
2023-02-28T04:28:03.928Z,9.68
2023-02-28T04:30:33.579Z,9.35
2023-02-28T04:33:03.119Z,9.07
2023-02-28T04:35:30.603Z,8.93
2023-02-28T04:37:57.752Z,9.52
2023-02-28T04:40:24.966Z,10.07
2023-02-28T04:42:52.106Z,9.48
2023-02-28T04:45:19.250Z,9.77
2023-02-28T04:47:46.187Z,10.02
2023-02-28T04:50:13.439Z,9.13
2023-02-28T04:52:40.565Z,10.32
2023-02-28T04:55:08.458Z,9.88
2023-02-28T04:57:35.633Z,9.95
2023-02-28T05:00:06.059Z,9.27
2023-02-28T05:02:36.047Z,10.05
2023-02-28T05:05:03.556Z,9.57
2023-02-28T05:07:30.575Z,10.20
2023-02-28T05:09:57.811Z,10.98
2023-02-28T05:12:24.942Z,9.57
2023-02-28T05:14:52.151Z,10.77
2023-02-28T05:17:19.144Z,10.93
2023-02-28T05:19:46.350Z,10.98
2023-02-28T05:22:16.544Z,10.48
2023-02-28T05:24:44.072Z,11.35
2023-02-28T05:27:11.532Z,10.23
2023-02-28T05:29:42.874Z,10.63
2023-02-28T05:34:40.246Z,10.05
2023-02-28T05:37:12.222Z,10.50
2023-02-28T05:39:39.730Z,11.52
2023-02-28T05:42:07.822Z,11.18
2023-02-28T05:44:35.278Z,10.35
2023-02-28T05:47:02.467Z,11.43
2023-02-28T05:49:30.246Z,11.48
2023-02-28T05:51:57.184Z,11.55
2023-02-28T05:54:24.752Z,12.25
2023-02-28T05:56:51.654Z,11.20
2023-02-28T05:59:19.312Z,11.23
2023-02-28T06:01:50.683Z,12.10
2023-02-28T06:04:32.564Z,11.40
2023-02-28T06:06:59.921Z,12.05
2023-02-28T06:09:27.197Z,12.35
2023-02-28T06:11:55.166Z,11.88
2023-02-28T06:14:22.454Z,11.73
2023-02-28T06:16:49.976Z,12.13
2023-02-28T06:19:17.899Z,12.52
2023-02-28T06:21:46.300Z,11.65
2023-02-28T06:24:13.946Z,10.82
2023-02-28T06:26:40.905Z,12.02
2023-02-28T06:29:08.559Z,11.07
2023-02-28T06:31:35.777Z,10.73
2023-02-28T06:34:04.105Z,10.65
2023-02-28T06:36:31.469Z,10.85
2023-02-28T06:38:59.017Z,10.68
2023-02-28T06:41:28.560Z,9.95
2023-02-28T06:43:56.723Z,10.90
2023-02-28T06:46:24.483Z,10.35
2023-02-28T06:48:52.102Z,9.23
2023-02-28T06:51:23.331Z,9.77
2023-02-28T06:53:52.128Z,9.75
2023-02-28T06:56:19.640Z,10.02
2023-02-28T06:58:51.376Z,9.80
2023-02-28T07:03:47.328Z,9.90
2023-02-28T07:06:14.512Z,9.73
2023-02-28T07:08:42.347Z,10.50
2023-02-28T07:11:09.316Z,11.43
2023-02-28T07:13:37.578Z,10.00
2023-02-28T07:16:06.852Z,9.43
2023-02-28T07:18:34.898Z,9.48
2023-02-28T07:21:07.636Z,8.95
2023-02-28T07:23:35.278Z,9.52
2023-02-28T07:26:02.932Z,9.88
2023-02-28T07:28:30.653Z,9.50
2023-02-28T07:30:57.959Z,9.07
2023-02-28T07:33:25.492Z,9.52
2023-02-28T07:35:52.409Z,9.13
2023-02-28T07:38:19.880Z,8.32
2023-02-28T07:40:46.956Z,8.43
2023-02-28T07:43:14.223Z,7.95
2023-02-28T07:45:41.280Z,8.07
2023-02-28T07:48:11.241Z,8.57
2023-02-28T07:50:38.779Z,8.48
2023-02-28T07:53:05.955Z,7.97
2023-02-28T07:55:33.786Z,8.48
2023-02-28T07:58:01.870Z,8.32
2023-02-28T08:00:30.120Z,7.40
2023-02-28T08:02:57.690Z,6.63
2023-02-28T08:05:24.878Z,7.43
2023-02-28T08:07:52.329Z,7.82
2023-02-28T08:10:19.545Z,6.55
2023-02-28T08:12:46.926Z,6.40
2023-02-28T08:15:14.110Z,7.50
2023-02-28T08:17:41.493Z,7.28
2023-02-28T08:20:10.276Z,7.60
2023-02-28T08:22:37.546Z,7.57
2023-02-28T08:25:05.236Z,7.53
2023-02-28T08:27:32.437Z,7.55
2023-02-28T08:30:00.505Z,8.13
2023-02-28T08:32:30.142Z,7.28
2023-02-28T08:34:57.982Z,8.05
2023-02-28T08:37:25.599Z,7.88
2023-02-28T08:39:56.002Z,6.78
2023-02-28T08:42:24.851Z,7.25
2023-02-28T08:44:51.916Z,8.00
2023-02-28T08:47:19.649Z,8.38
2023-02-28T08:49:47.442Z,6.90
2023-02-28T08:52:15.275Z,7.57
2023-02-28T08:54:42.379Z,7.80
2023-02-28T08:57:09.766Z,7.50
2023-02-28T08:59:37.101Z,7.75
2023-02-28T09:02:04.723Z,6.75
2023-02-28T09:04:32.148Z,8.52
2023-02-28T09:06:59.522Z,7.38
2023-02-28T09:09:26.713Z,7.40
2023-02-28T09:11:56.872Z,7.72
2023-02-28T09:14:23.896Z,7.07
2023-02-28T09:16:53.442Z,7.05
2023-02-28T09:19:20.398Z,7.55
2023-02-28T09:21:47.811Z,8.05
2023-02-28T09:24:16.246Z,7.85
2023-02-28T09:26:56.312Z,7.70
2023-02-28T09:29:24.054Z,7.60
2023-02-28T09:31:51.282Z,7.97
2023-02-28T09:34:18.928Z,8.00
2023-02-28T09:36:46.980Z,8.15
2023-02-28T09:39:17.340Z,8.30
2023-02-28T09:41:51.538Z,7.47
2023-02-28T09:44:45.272Z,8.60
2023-02-28T09:47:19.809Z,8.35
2023-02-28T09:49:48.870Z,8.75
2023-02-28T09:52:33.010Z,8.23
2023-02-28T09:55:35.399Z,8.45
2023-02-28T09:58:37.827Z,7.60
2023-02-28T10:01:12.877Z,8.20
2023-02-28T10:03:45.530Z,8.43
2023-02-28T10:06:27.093Z,7.75
2023-02-28T10:09:02.581Z,8.40
2023-02-28T10:11:33.338Z,7.65
2023-02-28T10:14:22.923Z,8.52
2023-02-28T10:16:56.234Z,8.68
2023-02-28T10:19:33.641Z,8.02
2023-02-28T10:22:05.876Z,8.43
2023-02-28T10:24:40.010Z,8.25
2023-02-28T10:27:24.773Z,8.07
2023-02-28T10:29:55.392Z,7.53
2023-02-28T10:32:34.645Z,8.68
2023-02-28T10:35:08.373Z,8.30
2023-02-28T10:37:41.900Z,8.15
2023-02-28T10:40:33.504Z,12.70
2023-02-28T10:43:20.774Z,8.65
2023-02-28T10:46:11.876Z,8.30
2023-02-28T10:48:46.047Z,8.40
2023-02-28T10:51:16.086Z,8.13
2023-02-28T10:54:01.155Z,8.68
2023-02-28T10:56:30.312Z,8.95
2023-02-28T10:59:16.302Z,9.63
2023-02-28T11:01:47.237Z,10.32
2023-02-28T11:04:23.146Z,9.55
2023-02-28T11:07:01.822Z,8.98
2023-02-28T11:09:39.779Z,8.70
2023-02-28T11:12:18.119Z,8.35
2023-02-28T11:14:52.190Z,9.50
2023-02-28T11:17:28.716Z,9.32
2023-02-28T11:20:00.856Z,10.07
2023-02-28T11:22:32.237Z,9.25
2023-02-28T11:25:11.262Z,9.57
2023-02-28T11:27:38.542Z,8.90
2023-02-28T11:30:29.500Z,9.90
2023-02-28T11:33:01.450Z,9.93
2023-02-28T11:35:41.235Z,9.73
2023-02-28T11:38:19.422Z,9.60
2023-02-28T11:41:09.364Z,9.95
2023-02-28T11:43:51.706Z,9.82
2023-02-28T11:46:42.644Z,10.73
2023-02-28T11:49:49.606Z,10.60
2023-02-28T11:52:41.405Z,10.05
2023-02-28T11:55:21.785Z,9.63
2023-02-28T11:58:12.060Z,11.40
2023-02-28T12:01:20.852Z,10.35
2023-02-28T12:04:11.529Z,9.57
2023-02-28T12:07:00.452Z,10.55
2023-02-28T12:10:08.350Z,9.95
2023-02-28T12:13:07.920Z,11.63
2023-02-28T12:16:04.608Z,10.07
2023-02-28T12:19:01.161Z,9.80
2023-02-28T12:21:47.463Z,10.13
2023-02-28T12:24:49.463Z,10.55
2023-02-28T12:27:22.691Z,10.27
2023-02-28T12:30:05.519Z,11.05
2023-02-28T12:32:45.179Z,10.38
2023-02-28T12:35:22.552Z,11.02
2023-02-28T12:37:58.796Z,10.35
2023-02-28T12:40:55.247Z,10.68
2023-02-28T12:43:34.170Z,9.43
2023-02-28T12:46:30.499Z,10.80
2023-02-28T12:49:07.787Z,8.77
2023-02-28T12:51:38.003Z,8.80
2023-02-28T12:54:28.916Z,9.15
2023-02-28T12:57:10.610Z,9.60
2023-02-28T12:59:54.631Z,9.43
2023-02-28T13:02:42.239Z,9.85
2023-02-28T13:05:41.728Z,9.20
2023-02-28T13:08:40.028Z,10.23
2023-02-28T13:11:33.397Z,10.18
2023-02-28T13:14:05.977Z,9.82
2023-02-28T13:17:12.064Z,9.63
2023-02-28T13:19:55.362Z,8.85
2023-02-28T13:22:27.119Z,9.00
2023-02-28T13:25:00.302Z,8.75
2023-02-28T13:27:43.734Z,9.50
2023-02-28T13:31:02.436Z,9.90
2023-02-28T13:33:45.319Z,9.65
2023-02-28T13:36:16.683Z,9.60
2023-02-28T13:38:54.428Z,8.93
2023-02-28T13:41:34.649Z,11.30
2023-02-28T13:44:11.319Z,9.95
2023-02-28T13:46:51.988Z,10.20
2023-02-28T13:49:24.349Z,9.95
2023-02-28T13:52:05.474Z,10.10
2023-02-28T13:54:46.196Z,12.07
2023-02-28T13:57:45.502Z,11.07
2023-02-28T14:00:32.171Z,10.38
2023-02-28T14:03:29.782Z,11.02
2023-02-28T14:06:19.196Z,10.32
2023-02-28T14:09:01.131Z,11.82
2023-02-28T14:11:38.458Z,11.20
2023-02-28T14:14:30.922Z,10.55
2023-02-28T14:17:02.114Z,10.30
2023-02-28T14:22:06.554Z,10.73
2023-02-28T14:24:56.973Z,9.88
2023-02-28T14:27:45.127Z,14.18
2023-02-28T14:30:43.803Z,16.25
2023-02-28T14:33:34.082Z,9.23
2023-02-28T14:36:21.564Z,9.75
2023-02-28T14:38:56.285Z,10.98
2023-02-28T14:41:32.206Z,11.77
2023-02-28T14:44:16.020Z,10.63
2023-02-28T14:46:47.573Z,11.00
2023-02-28T14:49:21.893Z,19.20
2023-02-28T14:52:03.529Z,10.57
2023-02-28T14:54:34.891Z,38.67
2023-02-28T14:57:06.367Z,10.43
2023-02-28T14:59:36.745Z,11.00
2023-02-28T15:02:24.115Z,10.40
2023-02-28T15:05:03.369Z,10.15
2023-02-28T15:07:32.796Z,10.52
2023-02-28T15:10:29.521Z,10.27
2023-02-28T15:13:05.747Z,10.40
2023-02-28T15:16:01.254Z,9.88
2023-02-28T15:18:53.982Z,9.85
2023-02-28T15:24:32.751Z,9.40
2023-02-28T15:27:19.017Z,9.63
2023-02-28T15:29:57.975Z,8.43
2023-02-28T15:32:31.196Z,10.10
2023-02-28T15:35:25.978Z,10.10
2023-02-28T15:38:03.470Z,8.93
2023-02-28T15:40:45.513Z,8.80
2023-02-28T15:43:26.120Z,9.65
2023-02-28T15:46:03.133Z,8.57
2023-02-28T15:48:41.125Z,10.00
2023-02-28T15:51:18.867Z,9.07
2023-02-28T15:53:58.203Z,8.50
2023-02-28T15:56:33.920Z,8.88
2023-02-28T15:59:08.615Z,9.65
2023-02-28T16:01:39.597Z,9.20
2023-02-28T16:04:22.063Z,9.75
2023-02-28T16:07:17.646Z,8.95
2023-02-28T16:09:50.143Z,8.90
2023-02-28T16:12:21.853Z,9.25
2023-02-28T16:14:55.607Z,9.73
2023-02-28T16:17:32.026Z,9.10
2023-02-28T16:20:03.689Z,8.98
2023-02-28T16:22:32.854Z,10.23
2023-02-28T16:25:07.179Z,9.43
2023-02-28T16:27:38.449Z,9.70
2023-02-28T16:30:11.439Z,9.88
2023-02-28T16:32:40.839Z,9.00
2023-02-28T16:35:13.964Z,9.95
2023-02-28T16:37:43.380Z,11.32
2023-02-28T16:40:20.206Z,10.15
2023-02-28T16:42:54.437Z,10.90
2023-02-28T16:45:26.181Z,10.65
2023-02-28T16:47:58.709Z,11.75
2023-02-28T16:50:33.026Z,11.95
2023-02-28T16:53:04.484Z,11.40
2023-02-28T16:55:33.964Z,11.35
2023-02-28T16:58:03.936Z,10.65
2023-02-28T17:00:36.539Z,12.40
2023-02-28T17:03:07.491Z,11.20
2023-02-28T17:05:41.619Z,11.98
2023-02-28T17:08:13.998Z,11.30
2023-02-28T17:10:45.210Z,10.63
2023-02-28T17:13:17.033Z,11.90
2023-02-28T17:15:49.682Z,12.23
2023-02-28T17:18:22.112Z,12.15
2023-02-28T17:20:53.428Z,12.77
2023-02-28T17:25:58.058Z,12.75
2023-02-28T17:28:31.766Z,12.18
2023-02-28T17:31:00.772Z,12.93
2023-02-28T17:33:32.041Z,12.98
2023-02-28T17:36:01.007Z,12.52
2023-02-28T17:38:30.314Z,13.40
2023-02-28T17:40:59.394Z,12.80
2023-02-28T17:43:32.739Z,13.32
2023-02-28T17:46:01.671Z,12.63
2023-02-28T17:48:33.144Z,14.25
2023-02-28T17:51:04.092Z,15.05
2023-02-28T17:53:33.409Z,14.45
2023-02-28T17:56:02.497Z,14.60
2023-02-28T17:58:35.088Z,15.77
2023-02-28T18:01:06.288Z,15.43
2023-02-28T18:03:36.024Z,14.75
2023-02-28T18:06:07.629Z,14.32
2023-02-28T18:08:36.987Z,15.65
2023-02-28T18:11:08.048Z,15.68
2023-02-28T18:16:08.582Z,15.88
2023-02-28T18:18:40.699Z,15.32
2023-02-28T18:21:14.099Z,15.13
2023-02-28T18:23:50.491Z,15.23
2023-02-28T18:26:20.452Z,15.63
2023-02-28T18:28:52.265Z,15.30
2023-02-28T18:31:21.321Z,15.43
2023-02-28T18:33:54.196Z,16.10
2023-02-28T18:36:23.453Z,15.05
2023-02-28T18:38:55.790Z,15.40
2023-02-28T18:41:28.963Z,14.38
2023-02-28T18:46:36.961Z,14.57
2023-02-28T18:49:08.551Z,14.43
2023-02-28T18:54:07.464Z,14.23
2023-02-28T18:56:38.358Z,14.65
2023-02-28T18:59:07.619Z,13.68
2023-02-28T19:01:38.984Z,15.27
2023-02-28T19:04:14.727Z,15.80
2023-02-28T19:06:45.993Z,15.15
2023-02-28T19:09:15.292Z,15.73
2023-02-28T19:11:46.272Z,16.27
2023-02-28T19:14:15.845Z,18.17
2023-02-28T19:16:47.154Z,17.08
2023-02-28T19:19:16.424Z,18.20
2023-02-28T19:21:47.282Z,20.58
2023-02-28T19:24:16.444Z,23.88
2023-02-28T19:26:47.609Z,20.70
2023-02-28T19:29:16.807Z,21.92
2023-02-28T19:31:48.248Z,22.85
2023-02-28T19:34:17.804Z,21.95
2023-02-28T19:36:48.827Z,23.42
2023-02-28T19:39:18.928Z,24.30
2023-02-28T19:41:51.904Z,22.63
2023-02-28T19:44:21.110Z,23.13
2023-02-28T19:46:54.849Z,23.05
2023-02-28T19:49:26.004Z,22.90
2023-02-28T19:51:57.461Z,22.40
2023-02-28T19:54:27.772Z,22.58
2023-02-28T19:56:59.535Z,23.70
2023-02-28T19:59:38.203Z,22.42
2023-02-28T20:02:19.583Z,22.73
2023-02-28T20:04:52.792Z,22.92
2023-02-28T20:07:21.878Z,21.08
2023-02-28T20:09:51.082Z,22.48
2023-02-28T20:12:25.212Z,20.92
2023-02-28T20:15:00.278Z,21.58
2023-02-28T20:17:30.472Z,22.05
2023-02-28T20:19:59.814Z,20.10
2023-02-28T20:22:28.818Z,22.13
2023-02-28T20:25:00.523Z,19.73
2023-02-28T20:27:31.800Z,20.95
2023-02-28T20:30:02.146Z,20.88
2023-02-28T20:32:33.228Z,19.50
2023-02-28T20:35:00.560Z,20.13
2023-02-28T20:37:31.653Z,18.92
2023-02-28T20:40:00.989Z,19.55
2023-02-28T20:42:32.247Z,20.75
2023-02-28T20:47:35.026Z,19.75
2023-02-28T20:50:06.608Z,20.40
2023-02-28T20:52:35.700Z,21.73
2023-02-28T20:55:07.850Z,21.90
2023-02-28T20:57:37.025Z,22.20
2023-02-28T21:00:21.416Z,22.38
2023-02-28T21:02:50.396Z,23.45
2023-02-28T21:05:21.981Z,23.90
2023-02-28T21:07:53.174Z,24.50
2023-02-28T21:12:55.594Z,22.05
2023-02-28T21:15:27.501Z,25.23
2023-02-28T21:17:57.009Z,23.73
2023-02-28T21:20:29.373Z,27.27
2023-02-28T21:22:58.329Z,27.48
2023-02-28T21:25:27.921Z,25.58
2023-02-28T21:27:57.369Z,26.10
2023-02-28T21:30:24.597Z,25.10
2023-02-28T21:32:55.635Z,26.00
2023-02-28T21:35:24.878Z,26.67
2023-02-28T21:37:58.073Z,26.23
2023-02-28T21:40:29.455Z,27.40
2023-02-28T21:43:00.423Z,26.98
2023-02-28T21:45:31.733Z,27.58
2023-02-28T21:48:02.788Z,28.27
2023-02-28T21:50:31.941Z,28.77
2023-02-28T21:53:02.887Z,30.30
2023-02-28T21:55:37.024Z,31.52
2023-02-28T21:58:08.035Z,31.40
2023-02-28T22:03:09.946Z,32.83
2023-02-28T22:05:40.008Z,33.33
2023-02-28T22:08:11.304Z,34.20
2023-02-28T22:10:42.571Z,35.15
2023-02-28T22:13:09.636Z,34.55
2023-02-28T22:15:41.217Z,35.25
2023-02-28T22:20:41.495Z,32.45
2023-02-28T22:23:10.591Z,31.77
2023-02-28T22:25:39.780Z,31.60
2023-02-28T22:28:12.703Z,32.20
2023-02-28T22:30:42.439Z,31.52
2023-02-28T22:33:13.599Z,33.15
2023-02-28T22:38:14.668Z,28.90
2023-02-28T22:40:46.413Z,30.15
2023-02-28T22:45:46.550Z,29.40
2023-02-28T22:48:13.428Z,32.33
2023-02-28T22:50:44.837Z,30.25
2023-02-28T22:53:14.058Z,31.48
2023-02-28T22:55:45.238Z,31.52
2023-02-28T22:58:16.248Z,32.13
2023-02-28T23:00:45.463Z,31.95
2023-02-28T23:03:16.597Z,30.75
2023-02-28T23:08:23.273Z,30.98
2023-02-28T23:10:54.986Z,32.65
2023-02-28T23:15:52.991Z,30.20
2023-02-28T23:18:24.023Z,35.33
2023-02-28T23:20:57.539Z,35.35
2023-02-28T23:23:29.440Z,36.55
2023-02-28T23:26:00.595Z,37.15
2023-02-28T23:28:27.535Z,34.67
2023-02-28T23:31:06.550Z,35.42
2023-02-28T23:33:35.513Z,36.70
2023-02-28T23:36:15.168Z,37.03
2023-02-28T23:38:50.496Z,35.22
2023-02-28T23:41:21.359Z,36.22
2023-02-28T23:43:54.284Z,36.45
2023-02-28T23:46:25.635Z,34.00
2023-02-28T23:48:52.601Z,35.30
2023-02-28T23:51:24.484Z,35.72
2023-02-28T23:53:53.417Z,35.47
2023-02-28T23:56:26.528Z,37.40
2023-02-28T23:58:55.494Z,36.13
